createdAt,value
2023-05-21T00:00:47.220Z,13.81
2023-05-21T00:03:16.754Z,13.83
2023-05-21T00:05:47.318Z,13.71
2023-05-21T00:08:16.144Z,13.71
2023-05-21T00:10:44.982Z,13.80
2023-05-21T00:13:13.842Z,13.85
2023-05-21T00:15:42.666Z,13.83
2023-05-21T00:18:12.082Z,13.77
2023-05-21T00:20:41.709Z,13.81
2023-05-21T00:23:10.406Z,13.70
2023-05-21T00:25:39.139Z,13.53
2023-05-21T00:28:09.486Z,13.47
2023-05-21T00:30:38.175Z,13.35
2023-05-21T00:33:07.773Z,13.23
2023-05-21T00:35:36.746Z,13.22
2023-05-21T00:38:07.312Z,13.21
2023-05-21T00:40:37.165Z,13.22
2023-05-21T00:43:05.945Z,13.18
2023-05-21T00:45:36.491Z,12.99
2023-05-21T00:48:08.292Z,12.88
2023-05-21T00:50:39.158Z,12.90
2023-05-21T00:53:11.608Z,12.83
2023-05-21T00:55:41.153Z,12.81
2023-05-21T00:58:09.998Z,12.91
2023-05-21T01:00:40.380Z,12.96
2023-05-21T01:03:13.276Z,13.02
2023-05-21T01:05:45.313Z,12.82
2023-05-21T01:08:15.097Z,12.92
2023-05-21T01:10:44.561Z,12.85
2023-05-21T01:13:13.376Z,13.00
2023-05-21T01:15:42.851Z,13.10
2023-05-21T01:18:12.190Z,13.10
2023-05-21T01:20:42.608Z,13.12
2023-05-21T01:23:12.207Z,13.19
2023-05-21T01:25:45.438Z,13.12
2023-05-21T01:28:14.971Z,13.16
2023-05-21T01:30:44.839Z,13.08
2023-05-21T01:33:23.230Z,13.16
2023-05-21T01:36:16.098Z,13.20
2023-05-21T01:39:09.965Z,13.16
2023-05-21T01:41:41.638Z,13.19
2023-05-21T01:44:11.864Z,13.07
2023-05-21T01:46:41.461Z,13.07
2023-05-21T01:49:11.187Z,13.16
2023-05-21T01:51:41.029Z,13.18
2023-05-21T01:54:09.849Z,13.13
2023-05-21T01:56:40.188Z,13.12
2023-05-21T01:59:11.071Z,13.10
2023-05-21T02:01:40.026Z,13.04
2023-05-21T02:04:08.856Z,12.87
2023-05-21T02:06:40.716Z,12.82
2023-05-21T02:09:09.476Z,12.77
2023-05-21T02:11:38.397Z,12.82
2023-05-21T02:14:10.313Z,12.84
2023-05-21T02:16:39.138Z,12.81
2023-05-21T02:19:09.502Z,12.91
2023-05-21T02:21:38.318Z,12.84
2023-05-21T02:24:09.216Z,12.76
2023-05-21T02:26:38.094Z,12.59
2023-05-21T02:29:07.002Z,12.64
2023-05-21T02:31:36.093Z,12.46
2023-05-21T02:34:04.835Z,12.46
2023-05-21T02:36:33.712Z,12.38
2023-05-21T02:39:02.615Z,12.36
2023-05-21T02:41:31.516Z,12.38
2023-05-21T02:44:03.115Z,12.32
2023-05-21T02:46:31.855Z,12.39
2023-05-21T02:49:00.895Z,12.35
2023-05-21T02:51:29.592Z,12.24
2023-05-21T02:53:58.338Z,12.25
2023-05-21T02:56:27.229Z,12.24
2023-05-21T02:58:55.950Z,12.33
2023-05-21T03:01:24.822Z,12.26
2023-05-21T03:03:53.533Z,12.23
2023-05-21T03:06:23.729Z,12.15
2023-05-21T03:08:52.437Z,12.24
2023-05-21T03:11:22.734Z,12.18
2023-05-21T03:13:51.685Z,12.11
2023-05-21T03:16:20.458Z,12.11
2023-05-21T03:18:49.460Z,12.06
2023-05-21T03:21:18.293Z,12.17
2023-05-21T03:23:46.922Z,12.29
2023-05-21T03:26:15.923Z,12.43
2023-05-21T03:28:44.605Z,12.54
2023-05-21T03:31:13.289Z,12.70
2023-05-21T03:33:42.076Z,12.79
2023-05-21T03:36:10.688Z,12.96
2023-05-21T03:38:39.465Z,13.06
2023-05-21T03:41:09.536Z,12.98
2023-05-21T03:43:38.376Z,13.06
2023-05-21T03:46:09.411Z,13.06
2023-05-21T03:48:38.137Z,13.25
2023-05-21T03:51:07.878Z,13.18
2023-05-21T03:53:36.686Z,13.38
2023-05-21T03:56:05.573Z,13.44
2023-05-21T03:58:34.348Z,13.52
2023-05-21T04:01:04.802Z,13.39
2023-05-21T04:03:36.307Z,13.48
2023-05-21T04:06:06.942Z,13.32
2023-05-21T04:08:36.723Z,13.50
2023-05-21T04:11:05.856Z,13.37
2023-05-21T04:13:38.116Z,13.48
2023-05-21T04:16:08.789Z,13.80
2023-05-21T04:18:38.322Z,13.98
2023-05-21T04:21:08.673Z,14.07
2023-05-21T04:23:37.991Z,14.14
2023-05-21T04:26:07.762Z,14.19
2023-05-21T04:28:36.836Z,14.16
2023-05-21T04:31:05.801Z,14.11
2023-05-21T04:33:35.980Z,13.98
2023-05-21T04:36:07.730Z,14.01
2023-05-21T04:38:41.735Z,14.30
2023-05-21T04:41:07.604Z,14.43
2023-05-21T04:43:36.949Z,14.49
2023-05-21T04:46:08.734Z,14.67
2023-05-21T04:48:39.181Z,14.86
2023-05-21T04:51:17.175Z,14.93
2023-05-21T04:53:46.484Z,15.10
2023-05-21T04:56:15.807Z,15.32
2023-05-21T04:58:48.336Z,15.46
2023-05-21T05:01:19.264Z,15.58
2023-05-21T05:03:48.230Z,15.57
2023-05-21T05:06:18.457Z,15.68
2023-05-21T05:08:47.133Z,15.83
2023-05-21T05:11:15.857Z,16.19
2023-05-21T05:13:44.816Z,16.39
2023-05-21T05:16:21.708Z,16.90
2023-05-21T05:18:54.687Z,17.02
2023-05-21T05:21:24.221Z,17.04
2023-05-21T05:23:55.888Z,17.17
2023-05-21T05:26:24.680Z,17.05
2023-05-21T05:28:53.445Z,16.83
2023-05-21T05:31:22.133Z,16.67
2023-05-21T05:33:50.867Z,16.83
2023-05-21T05:36:19.635Z,17.12
2023-05-21T05:38:48.271Z,17.16
2023-05-21T05:41:16.944Z,17.07
2023-05-21T05:43:53.273Z,17.09
2023-05-21T05:46:22.159Z,17.11
2023-05-21T05:48:51.002Z,17.31
2023-05-21T05:51:19.698Z,17.36
2023-05-21T05:53:48.391Z,17.52
2023-05-21T05:56:17.278Z,17.85
2023-05-21T05:58:46.144Z,17.93
2023-05-21T06:01:15.109Z,18.16
2023-05-21T06:03:43.945Z,18.69
2023-05-21T06:06:13.216Z,18.89
2023-05-21T06:08:42.021Z,18.90
2023-05-21T06:11:11.541Z,18.89
2023-05-21T06:13:40.145Z,19.04
2023-05-21T06:16:10.192Z,19.04
2023-05-21T06:18:39.252Z,18.59
2023-05-21T06:21:12.568Z,18.52
2023-05-21T06:23:41.907Z,18.84
2023-05-21T06:26:10.708Z,18.93
2023-05-21T06:28:39.385Z,19.07
2023-05-21T06:31:08.030Z,19.04
2023-05-21T06:33:37.114Z,18.86
2023-05-21T06:36:06.118Z,18.74
2023-05-21T06:38:34.933Z,18.84
2023-05-21T06:41:04.202Z,18.29
2023-05-21T06:43:32.850Z,19.02
2023-05-21T06:46:01.696Z,19.24
2023-05-21T06:48:30.631Z,19.03
2023-05-21T06:50:59.396Z,18.45
2023-05-21T06:53:28.706Z,19.11
2023-05-21T06:55:59.099Z,19.67
2023-05-21T06:58:31.554Z,20.05
2023-05-21T07:01:03.787Z,20.00
2023-05-21T07:03:32.628Z,20.16
2023-05-21T07:06:12.646Z,19.97
2023-05-21T07:09:42.346Z,19.80
2023-05-21T07:11:51.455Z,19.85
2023-05-21T07:14:19.161Z,20.16
2023-05-21T07:16:47.870Z,20.14
2023-05-21T07:19:18.328Z,19.99
2023-05-21T07:21:47.935Z,20.19
2023-05-21T07:24:27.949Z,19.95
2023-05-21T07:26:56.760Z,19.66
2023-05-21T07:29:35.802Z,19.51
2023-05-21T07:32:04.772Z,19.71
2023-05-21T07:34:33.452Z,19.99
2023-05-21T07:37:04.814Z,19.60
2023-05-21T07:39:33.630Z,19.55
2023-05-21T07:42:02.319Z,19.77
2023-05-21T07:44:32.484Z,19.77
2023-05-21T07:47:01.425Z,19.96
2023-05-21T07:49:30.062Z,20.06
2023-05-21T07:51:58.781Z,20.64
2023-05-21T07:54:52.447Z,21.21
2023-05-21T08:00:20.825Z,21.40
2023-05-21T08:02:52.794Z,21.68
2023-05-21T08:05:25.736Z,21.76
2023-05-21T08:07:54.638Z,22.05
2023-05-21T08:10:29.530Z,21.43
2023-05-21T08:13:02.782Z,21.73
2023-05-21T08:15:34.689Z,21.63
2023-05-21T08:18:06.947Z,21.63
2023-05-21T08:20:35.706Z,21.82
2023-05-21T08:23:05.062Z,21.95
2023-05-21T08:25:33.761Z,22.16
2023-05-21T08:28:02.443Z,22.04
2023-05-21T08:30:31.378Z,22.29
2023-05-21T08:33:00.268Z,21.80
2023-05-21T08:35:29.182Z,21.62
2023-05-21T08:37:58.880Z,21.83
2023-05-21T08:40:27.611Z,21.74
2023-05-21T08:42:56.325Z,21.45
2023-05-21T08:45:25.252Z,21.70
2023-05-21T08:48:01.340Z,22.04
2023-05-21T08:50:30.392Z,22.29
2023-05-21T08:53:01.365Z,22.43
2023-05-21T08:55:32.083Z,22.10
2023-05-21T08:58:05.722Z,21.96
2023-05-21T09:00:36.148Z,21.90
2023-05-21T09:03:11.294Z,21.75
2023-05-21T09:05:44.876Z,21.93
2023-05-21T09:08:36.668Z,21.78
2023-05-21T09:11:05.470Z,21.80
2023-05-21T09:13:38.826Z,22.18
2023-05-21T09:16:10.295Z,22.27
2023-05-21T09:18:39.167Z,21.93
2023-05-21T09:21:31.520Z,21.69
2023-05-21T09:24:08.858Z,22.22
2023-05-21T09:26:48.836Z,22.50
2023-05-21T09:29:17.672Z,22.47
2023-05-21T09:31:52.732Z,22.74
2023-05-21T09:34:21.620Z,22.48
2023-05-21T09:36:58.799Z,22.57
2023-05-21T09:39:35.965Z,22.40
2023-05-21T09:42:11.030Z,22.58
2023-05-21T09:44:40.378Z,22.43
2023-05-21T09:47:12.998Z,22.39
2023-05-21T09:49:47.558Z,22.40
2023-05-21T09:52:20.426Z,22.43
2023-05-21T09:54:49.260Z,22.56
2023-05-21T09:57:20.081Z,23.04
2023-05-21T09:59:54.207Z,23.30
2023-05-21T10:02:24.605Z,23.47
2023-05-21T10:04:57.031Z,23.56
2023-05-21T10:07:29.917Z,23.12
2023-05-21T10:10:00.818Z,22.97
2023-05-21T10:12:32.137Z,22.95
2023-05-21T10:15:11.548Z,23.04
2023-05-21T10:17:44.380Z,23.42
2023-05-21T10:23:46.088Z,23.24
2023-05-21T10:27:14.112Z,23.64
2023-05-21T10:39:43.396Z,24.57
2023-05-21T10:42:36.741Z,24.53
2023-05-21T10:45:31.920Z,24.58
2023-05-21T10:48:16.192Z,24.08
2023-05-21T10:50:53.666Z,23.12
2023-05-21T10:53:34.722Z,23.21
2023-05-21T10:56:18.150Z,22.88
2023-05-21T10:59:07.817Z,23.23
2023-05-21T11:01:50.400Z,23.83
2023-05-21T11:04:36.549Z,23.94
2023-05-21T11:07:07.289Z,23.84
2023-05-21T11:09:35.755Z,23.39
2023-05-21T11:12:09.933Z,22.83
2023-05-21T11:14:43.668Z,22.60
2023-05-21T11:17:20.188Z,22.42
2023-05-21T11:19:52.736Z,22.52
2023-05-21T11:22:26.981Z,22.69
2023-05-21T11:25:03.526Z,22.87
2023-05-21T11:27:51.784Z,23.52
2023-05-21T11:30:24.588Z,23.74
2023-05-21T11:33:30.202Z,24.00
2023-05-21T11:36:02.545Z,23.26
2023-05-21T11:38:42.069Z,22.95
2023-05-21T11:41:22.787Z,22.68
2023-05-21T11:43:58.067Z,22.20
2023-05-21T11:46:56.020Z,22.03
2023-05-21T11:52:25.564Z,22.38
2023-05-21T11:54:58.230Z,22.48
2023-05-21T11:57:31.387Z,22.36
2023-05-21T12:00:01.843Z,21.95
2023-05-21T12:02:38.353Z,21.82
2023-05-21T12:05:11.846Z,21.45
2023-05-21T12:07:42.692Z,21.28
2023-05-21T12:10:12.202Z,21.10
2023-05-21T12:12:54.109Z,21.04
2023-05-21T12:15:13.382Z,20.80
2023-05-21T12:17:45.118Z,20.83
2023-05-21T12:20:17.166Z,20.62
2023-05-21T12:22:46.646Z,20.53
2023-05-21T12:25:15.912Z,20.56
2023-05-21T12:27:45.087Z,20.89
2023-05-21T12:30:14.691Z,20.77
2023-05-21T12:33:15.442Z,21.37
2023-05-21T12:35:25.057Z,21.78
2023-05-21T12:38:05.024Z,22.01
2023-05-21T12:48:52.083Z,21.98
2023-05-21T12:54:02.213Z,21.61
2023-05-21T12:56:33.909Z,21.23
2023-05-21T12:59:02.807Z,21.08
2023-05-21T13:01:32.092Z,20.86
2023-05-21T13:04:01.055Z,20.74
2023-05-21T13:06:29.772Z,20.66
2023-05-21T13:09:00.919Z,20.60
2023-05-21T13:11:36.365Z,20.56
2023-05-21T13:14:04.984Z,20.62
2023-05-21T13:16:33.692Z,20.60
2023-05-21T13:19:26.041Z,20.70
2023-05-21T13:21:42.124Z,20.69
2023-05-21T13:24:10.917Z,20.86
2023-05-21T13:26:39.745Z,20.86
2023-05-21T13:29:08.531Z,21.04
2023-05-21T13:31:40.104Z,21.04
2023-05-21T13:34:33.873Z,21.33
2023-05-21T13:37:02.758Z,21.57
2023-05-21T13:39:40.492Z,21.65
2023-05-21T13:42:09.836Z,22.13
2023-05-21T13:44:53.274Z,22.36
2023-05-21T13:47:22.480Z,22.11
2023-05-21T13:49:51.316Z,21.87
2023-05-21T13:52:21.951Z,21.83
2023-05-21T13:54:53.754Z,21.50
2023-05-21T13:57:22.650Z,21.23
2023-05-21T13:59:54.333Z,21.22
2023-05-21T14:02:25.681Z,21.18
2023-05-21T14:05:01.405Z,20.96
2023-05-21T14:07:50.087Z,20.61
2023-05-21T14:10:22.069Z,20.37
2023-05-21T14:12:51.656Z,20.33
2023-05-21T14:15:22.123Z,20.35
2023-05-21T14:17:52.479Z,20.25
2023-05-21T14:20:21.275Z,20.20
2023-05-21T14:22:49.952Z,20.37
2023-05-21T14:25:18.682Z,20.61
2023-05-21T14:27:47.356Z,20.80
2023-05-21T14:30:16.096Z,21.17
2023-05-21T14:32:46.354Z,21.23
2023-05-21T14:35:15.234Z,21.14
2023-05-21T14:37:52.585Z,21.41
2023-05-21T14:40:21.664Z,21.53
2023-05-21T14:42:52.082Z,21.39
2023-05-21T14:45:21.060Z,21.26
2023-05-21T14:47:49.822Z,20.81
2023-05-21T14:50:18.965Z,20.47
2023-05-21T14:52:47.883Z,20.47
2023-05-21T14:55:18.583Z,20.25
2023-05-21T14:57:47.268Z,20.08
2023-05-21T15:00:23.846Z,19.94
2023-05-21T15:02:54.034Z,19.82
2023-05-21T15:05:23.246Z,19.79
2023-05-21T15:07:58.699Z,19.79
2023-05-21T15:10:27.002Z,19.60
2023-05-21T15:12:57.931Z,19.57
2023-05-21T15:15:29.374Z,19.57
2023-05-21T15:17:58.316Z,19.52
2023-05-21T15:20:27.062Z,19.63
2023-05-21T15:23:05.033Z,19.73
2023-05-21T15:25:26.116Z,19.80
2023-05-21T15:27:56.455Z,19.79
2023-05-21T15:30:26.709Z,19.65
2023-05-21T15:32:55.673Z,19.68
2023-05-21T15:35:24.545Z,19.69
2023-05-21T15:37:53.574Z,19.59
2023-05-21T15:40:23.410Z,19.67
2023-05-21T15:42:52.925Z,19.62
2023-05-21T15:45:21.823Z,19.62
2023-05-21T15:47:50.709Z,19.67
2023-05-21T15:50:25.167Z,19.66
2023-05-21T15:52:57.017Z,19.74
2023-05-21T15:55:27.294Z,19.89
2023-05-21T15:57:55.973Z,20.12
2023-05-21T16:00:24.741Z,20.22
2023-05-21T16:02:55.564Z,20.43
2023-05-21T16:05:26.670Z,20.68
2023-05-21T16:07:56.908Z,20.94
2023-05-21T16:10:25.821Z,21.90
2023-05-21T16:13:02.430Z,21.82
2023-05-21T16:15:36.159Z,21.32
2023-05-21T16:18:05.276Z,20.69
2023-05-21T16:20:36.687Z,20.61
2023-05-21T16:23:06.466Z,20.26
2023-05-21T16:25:36.538Z,19.86
2023-05-21T16:28:05.792Z,19.82
2023-05-21T16:30:34.527Z,19.70
2023-05-21T16:33:03.404Z,19.48
2023-05-21T16:35:33.781Z,19.41
2023-05-21T16:38:02.869Z,19.41
2023-05-21T16:40:31.731Z,19.20
2023-05-21T16:43:08.480Z,19.12
2023-05-21T16:45:46.435Z,19.14
2023-05-21T16:48:16.483Z,19.04
2023-05-21T16:50:46.962Z,19.02
2023-05-21T16:53:16.320Z,18.98
2023-05-21T16:55:44.917Z,18.99
2023-05-21T16:58:19.237Z,19.02
2023-05-21T17:00:48.343Z,18.94
2023-05-21T17:03:17.105Z,18.92
2023-05-21T17:05:45.959Z,18.96
2023-05-21T17:08:14.672Z,18.83
2023-05-21T17:10:43.406Z,18.78
2023-05-21T17:13:21.456Z,18.60
2023-05-21T17:15:42.448Z,18.59
2023-05-21T17:18:12.276Z,18.51
2023-05-21T17:20:41.058Z,18.43
2023-05-21T17:23:10.449Z,18.49
2023-05-21T17:25:39.856Z,18.38
2023-05-21T17:28:08.911Z,18.36
2023-05-21T17:30:37.609Z,18.27
2023-05-21T17:33:07.902Z,18.23
2023-05-21T17:35:36.963Z,18.19
2023-05-21T17:38:05.765Z,18.17
2023-05-21T17:40:34.506Z,18.14
2023-05-21T17:43:04.342Z,18.07
2023-05-21T17:45:33.073Z,17.99
2023-05-21T17:48:02.005Z,18.02
2023-05-21T17:50:30.980Z,18.04
2023-05-21T17:52:59.934Z,17.96
2023-05-21T17:55:28.593Z,17.87
2023-05-21T17:57:58.828Z,17.71
2023-05-21T18:00:32.247Z,17.60
2023-05-21T18:03:04.379Z,17.46
2023-05-21T18:05:34.888Z,17.26
2023-05-21T18:08:13.726Z,17.18
2023-05-21T18:10:50.014Z,17.00
2023-05-21T18:13:21.270Z,16.97
2023-05-21T18:15:53.220Z,16.84
2023-05-21T18:18:26.519Z,16.77
2023-05-21T18:21:05.805Z,16.70
2023-05-21T18:23:39.261Z,16.58
2023-05-21T18:26:08.285Z,16.55
2023-05-21T18:28:37.370Z,16.56
2023-05-21T18:31:06.369Z,16.72
2023-05-21T18:33:35.257Z,16.71
2023-05-21T18:36:03.967Z,16.69
2023-05-21T18:38:35.512Z,16.67
2023-05-21T18:41:15.141Z,16.60
2023-05-21T18:43:48.525Z,16.73
2023-05-21T18:46:19.589Z,16.71
2023-05-21T18:49:11.586Z,16.67
2023-05-21T18:51:43.522Z,16.72
2023-05-21T18:54:12.133Z,16.67
2023-05-21T18:56:40.880Z,16.68
2023-05-21T18:59:14.010Z,16.72
2023-05-21T19:01:42.992Z,16.75
2023-05-21T19:04:12.658Z,16.69
2023-05-21T19:06:41.278Z,16.60
2023-05-21T19:09:10.007Z,16.36
2023-05-21T19:11:56.377Z,16.40
2023-05-21T19:20:31.077Z,16.16
2023-05-21T19:23:01.612Z,16.16
2023-05-21T19:25:32.116Z,16.23
2023-05-21T19:28:01.101Z,16.16
2023-05-21T19:30:32.909Z,16.13
2023-05-21T19:33:07.107Z,15.98
2023-05-21T19:35:43.144Z,15.83
2023-05-21T19:38:12.565Z,15.70
2023-05-21T19:40:41.396Z,15.94
2023-05-21T19:43:10.192Z,15.97
2023-05-21T19:45:38.985Z,15.85
2023-05-21T19:48:11.137Z,15.91
2023-05-21T19:50:41.464Z,15.85
2023-05-21T19:53:56.402Z,15.81
2023-05-21T19:56:04.246Z,15.84
2023-05-21T19:58:51.539Z,15.72
2023-05-21T20:01:32.145Z,15.71
2023-05-21T20:04:03.230Z,15.56
2023-05-21T20:06:31.972Z,15.55
2023-05-21T20:09:00.826Z,15.41
2023-05-21T20:11:29.760Z,15.57
2023-05-21T20:14:02.345Z,15.55
2023-05-21T20:16:33.891Z,15.56
2023-05-21T20:19:04.036Z,15.39
2023-05-21T20:21:33.003Z,15.29
2023-05-21T20:24:03.371Z,15.33
2023-05-21T20:26:39.592Z,15.30
2023-05-21T20:29:13.001Z,15.36
2023-05-21T20:31:44.452Z,15.23
2023-05-21T20:34:13.060Z,15.08
2023-05-21T20:36:41.840Z,15.00
2023-05-21T20:39:13.817Z,14.94
2023-05-21T20:41:45.392Z,14.53
2023-05-21T20:44:17.160Z,14.93
2023-05-21T20:46:46.451Z,14.95
2023-05-21T20:49:18.507Z,14.82
2023-05-21T20:51:51.483Z,14.76
2023-05-21T20:54:21.755Z,14.64
2023-05-21T20:56:50.848Z,14.62
2023-05-21T20:59:19.663Z,14.67
2023-05-21T21:01:48.779Z,14.57
2023-05-21T21:04:19.051Z,14.59
2023-05-21T21:06:48.301Z,14.52
2023-05-21T21:09:17.785Z,14.42
2023-05-21T21:11:46.502Z,14.35
2023-05-21T21:14:15.238Z,14.36
2023-05-21T21:16:44.120Z,14.27
2023-05-21T21:19:12.882Z,14.03
2023-05-21T21:21:41.508Z,14.04
2023-05-21T21:24:10.516Z,13.98
2023-05-21T21:26:39.236Z,13.87
2023-05-21T21:29:08.183Z,13.85
2023-05-21T21:31:37.115Z,13.88
2023-05-21T21:34:06.257Z,13.86
2023-05-21T21:36:39.223Z,13.84
2023-05-21T21:39:08.834Z,13.84
2023-05-21T21:41:37.529Z,13.82
2023-05-21T21:44:06.527Z,13.73
2023-05-21T21:46:40.992Z,13.71
2023-05-21T21:49:09.620Z,13.60
2023-05-21T21:51:39.691Z,13.60
2023-05-21T21:54:08.335Z,13.61
2023-05-21T21:56:39.382Z,13.66
2023-05-21T21:59:08.087Z,13.53
2023-05-21T22:01:36.858Z,13.51
2023-05-21T22:04:05.722Z,13.44
2023-05-21T22:06:34.484Z,13.30
2023-05-21T22:09:03.261Z,13.23
2023-05-21T22:11:32.106Z,13.07
2023-05-21T22:14:00.882Z,13.12
2023-05-21T22:16:29.571Z,13.11
2023-05-21T22:18:58.877Z,13.04
2023-05-21T22:21:32.271Z,13.05
2023-05-21T22:24:01.422Z,12.99
2023-05-21T22:26:30.253Z,12.92
2023-05-21T22:28:59.224Z,12.83
2023-05-21T22:31:28.098Z,12.93
2023-05-21T22:33:56.720Z,12.82
2023-05-21T22:36:25.419Z,12.82
2023-05-21T22:38:54.457Z,12.79
2023-05-21T22:41:23.420Z,12.88
2023-05-21T22:43:52.418Z,12.87
2023-05-21T22:46:21.133Z,12.81
2023-05-21T22:48:49.870Z,12.63
2023-05-21T22:51:18.721Z,12.53
2023-05-21T22:53:47.488Z,12.55
2023-05-21T22:56:16.170Z,12.53
2023-05-21T22:58:45.272Z,12.47
2023-05-21T23:01:14.102Z,12.52
2023-05-21T23:03:42.710Z,12.38
2023-05-21T23:06:11.509Z,12.31
2023-05-21T23:08:40.308Z,12.35
2023-05-21T23:11:08.966Z,12.45
2023-05-21T23:13:37.786Z,12.35
2023-05-21T23:16:06.697Z,12.41
2023-05-21T23:18:36.843Z,12.43
2023-05-21T23:21:05.714Z,12.42
2023-05-21T23:23:34.456Z,12.44
2023-05-21T23:26:03.173Z,12.43
2023-05-21T23:28:31.827Z,12.43
2023-05-21T23:31:00.777Z,12.43
2023-05-21T23:33:29.532Z,12.38
2023-05-21T23:35:58.177Z,12.45
2023-05-21T23:38:27.256Z,12.58
2023-05-21T23:40:56.279Z,12.65
2023-05-21T23:43:24.933Z,12.68
2023-05-21T23:45:53.742Z,12.59
2023-05-21T23:48:24.163Z,12.52
2023-05-21T23:50:53.096Z,12.67
2023-05-21T23:53:21.816Z,12.80
2023-05-21T23:55:50.533Z,12.91
2023-05-21T23:58:19.306Z,12.96
